Tropical Cyclones
[Index]
Main Index Home Page Stock Weather Photos Extreme Storms Discussion Storm News and Storm Chasing Reports Tropical Cyclones / Hurricanes / Typhoons Weather Data and Links Wild Fires / Bushfires Weather Observation Techniques Weather Picture Catalogue Tornado Pictures and Reports Stock Video Footage and DVDs for sale
Season 1998-1999 Tropical Cyclone FRANK Track Map
Season 1998-1999 Summaries: [BoM-AU] [JTWC-AU] [JTWC-SIO] [JTWC-SPAC] [JTWC-SH]
<<- Previous TC | JTWC 1998-1999 Season | Next TC ->>

click for intensity scale information  Lat/long Grid: Show Hide

 Date Labels: Show Hide

Joint Typhoon Warning Centre Cyclone Data

Name: FRANK

16 Feb 1999 18:00 UTC to 26 Feb 1999 06:00 UTC

    date/time    lat    long     hPa   cat  kts
1999-02-16 18   21.4   152.4                  20          
1999-02-17 00   21.4   153.7                  30          
1999-02-17 06   21.6   155.4                  30          
1999-02-17 12   21.2   156.6                  35          
1999-02-17 18   20.8   157.3                  35          
1999-02-18 00   20.7   158.0                  35          
1999-02-18 06   20.4   159.1                  35          
1999-02-18 12   20.0   159.9                  35          
1999-02-18 18   19.9   160.6            1     45          
1999-02-19 00   19.9   161.4            2     55          
1999-02-19 06   20.2   162.6            2     55          
1999-02-19 12   20.2   163.4            2     65          
1999-02-19 18   20.3   164.4            2     70          
1999-02-20 00   20.8   165.2            3     95          
1999-02-20 06   21.7   165.7            3     90          
1999-02-20 12   22.6   166.2            3     90          
1999-02-20 18   23.6   165.4            3     90          
1999-02-21 00   24.4   164.9            3     80          
1999-02-21 06   25.2   164.5            3     75          
1999-02-21 12   25.6   164.3            2     70          
1999-02-21 18   26.5   163.1            2     65          
1999-02-22 00   26.8   162.2            2     60          
1999-02-22 06   26.8   161.7            2     60          
1999-02-22 12   27.1   161.5            2     55          
1999-02-22 18   27.4   161.5            1     50          
1999-02-23 00   27.8   161.9            1     45          
1999-02-23 06   29.4   163.0            1     40          
1999-02-23 12   31.3   163.3                  30          
1999-02-23 18   32.8   162.7                  30          
1999-02-24 00   33.7   162.4                  25          
1999-02-24 06   34.7   162.5                  25          
1999-02-24 12   35.4   162.7                  25          
1999-02-24 18   36.3   162.9                  25          
1999-02-25 00   37.1   163.1                  25          
1999-02-25 06   37.6   163.3                  25          
1999-02-25 12   37.9   163.3                  25          
1999-02-25 18   38.2   163.4                  25          
1999-02-26 00   38.8   164.0                  25          
1999-02-26 06   39.5   166.3                  25          
Winds are 1-min average.

Tropical cyclone tracks developed by Michael Bath using data from the Joint Typhoon Warning Centre Best Tracks and Google Maps.


[Australian Severe Weather index] [Copyright Notice] [Email Contacts] [Search This Site] [Privacy Policy]
Document: tropical_cyclone_frank.htm Updated: 18 September 2016